sensor_id;sensor_type;location;lat;lon;timestamp;temperature;humidity
47368;DHT22;34646;47.964;7.982;2022-08-25T00:01:35;24.30;59.90
47368;DHT22;34646;47.964;7.982;2022-08-25T00:07:37;24.30;59.90
47368;DHT22;34646;47.964;7.982;2022-08-25T00:13:40;24.30;59.80
47368;DHT22;34646;47.964;7.982;2022-08-25T00:19:43;24.30;59.90
47368;DHT22;34646;47.964;7.982;2022-08-25T00:25:44;24.30;59.90
47368;DHT22;34646;47.964;7.982;2022-08-25T00:31:45;24.30;59.80
47368;DHT22;34646;47.964;7.982;2022-08-25T00:37:46;24.40;59.90
47368;DHT22;34646;47.964;7.982;2022-08-25T00:43:56;24.30;59.80
47368;DHT22;34646;47.964;7.982;2022-08-25T00:49:58;24.30;59.80
47368;DHT22;34646;47.964;7.982;2022-08-25T00:56:01;24.30;59.80
47368;DHT22;34646;47.964;7.982;2022-08-25T01:02:03;24.30;59.80
47368;DHT22;34646;47.964;7.982;2022-08-25T01:08:06;24.30;59.90
47368;DHT22;34646;47.964;7.982;2022-08-25T01:14:08;24.30;59.90
47368;DHT22;34646;47.964;7.982;2022-08-25T01:20:10;24.30;59.90
47368;DHT22;34646;47.964;7.982;2022-08-25T01:26:14;24.30;59.90
47368;DHT22;34646;47.964;7.982;2022-08-25T01:32:15;24.30;59.90
47368;DHT22;34646;47.964;7.982;2022-08-25T01:38:17;24.30;59.90
47368;DHT22;34646;47.964;7.982;2022-08-25T01:44:20;24.30;60.00
47368;DHT22;34646;47.964;7.982;2022-08-25T01:50:20;24.20;59.90
47368;DHT22;34646;47.964;7.982;2022-08-25T01:56:21;24.30;60.00
47368;DHT22;34646;47.964;7.982;2022-08-25T02:02:22;24.30;60.00
47368;DHT22;34646;47.964;7.982;2022-08-25T02:08:23;24.30;60.00
47368;DHT22;34646;47.964;7.982;2022-08-25T02:14:24;24.30;60.00
47368;DHT22;34646;47.964;7.982;2022-08-25T02:20:25;24.20;59.90
47368;DHT22;34646;47.964;7.982;2022-08-25T02:26:26;24.20;59.90
47368;DHT22;34646;47.964;7.982;2022-08-25T02:32:26;24.20;59.90
47368;DHT22;34646;47.964;7.982;2022-08-25T02:38:28;24.30;60.00
47368;DHT22;34646;47.964;7.982;2022-08-25T02:44:28;24.20;59.90
47368;DHT22;34646;47.964;7.982;2022-08-25T02:50:31;24.20;60.00
47368;DHT22;34646;47.964;7.982;2022-08-25T02:56:33;24.30;60.00
47368;DHT22;34646;47.964;7.982;2022-08-25T03:02:33;24.30;60.10
47368;DHT22;34646;47.964;7.982;2022-08-25T03:08:35;24.20;60.00
47368;DHT22;34646;47.964;7.982;2022-08-25T03:14:37;24.20;60.00
47368;DHT22;34646;47.964;7.982;2022-08-25T03:20:38;24.20;60.10
47368;DHT22;34646;47.964;7.982;2022-08-25T03:26:39;24.20;60.10
47368;DHT22;34646;47.964;7.982;2022-08-25T03:32:55;24.20;60.10
47368;DHT22;34646;47.964;7.982;2022-08-25T03:38:56;24.20;60.00
47368;DHT22;34646;47.964;7.982;2022-08-25T03:44:57;24.20;60.00
47368;DHT22;34646;47.964;7.982;2022-08-25T03:50:58;24.20;60.10
47368;DHT22;34646;47.964;7.982;2022-08-25T03:56:59;24.20;60.20
47368;DHT22;34646;47.964;7.982;2022-08-25T04:02:59;24.20;60.20
47368;DHT22;34646;47.964;7.982;2022-08-25T04:09:00;24.20;60.30
47368;DHT22;34646;47.964;7.982;2022-08-25T04:15:03;24.20;60.30
47368;DHT22;34646;47.964;7.982;2022-08-25T04:21:06;24.20;60.40
47368;DHT22;34646;47.964;7.982;2022-08-25T04:27:09;24.20;60.40
47368;DHT22;34646;47.964;7.982;2022-08-25T04:33:09;24.20;60.50
47368;DHT22;34646;47.964;7.982;2022-08-25T04:39:10;24.20;60.50
47368;DHT22;34646;47.964;7.982;2022-08-25T04:45:11;24.20;60.50
47368;DHT22;34646;47.964;7.982;2022-08-25T04:51:15;24.20;60.50
47368;DHT22;34646;47.964;7.982;2022-08-25T04:57:16;24.20;60.50
47368;DHT22;34646;47.964;7.982;2022-08-25T05:03:16;24.20;60.50
47368;DHT22;34646;47.964;7.982;2022-08-25T05:09:17;24.10;60.50
47368;DHT22;34646;47.964;7.982;2022-08-25T05:15:18;24.10;60.50
47368;DHT22;34646;47.964;7.982;2022-08-25T05:21:37;24.10;60.50
47368;DHT22;34646;47.964;7.982;2022-08-25T05:27:38;24.10;60.50
47368;DHT22;34646;47.964;7.982;2022-08-25T05:33:39;24.10;60.50
47368;DHT22;34646;47.964;7.982;2022-08-25T05:39:40;24.10;60.60
47368;DHT22;34646;47.964;7.982;2022-08-25T05:45:41;24.10;60.50
47368;DHT22;34646;47.964;7.982;2022-08-25T05:51:41;24.10;60.60
47368;DHT22;34646;47.964;7.982;2022-08-25T05:57:42;24.10;60.60
47368;DHT22;34646;47.964;7.982;2022-08-25T06:03:43;24.10;60.60
47368;DHT22;34646;47.964;7.982;2022-08-25T06:09:43;24.10;60.60
47368;DHT22;34646;47.964;7.982;2022-08-25T06:15:45;24.10;60.60
47368;DHT22;34646;47.964;7.982;2022-08-25T06:21:46;24.10;60.60
47368;DHT22;34646;47.964;7.982;2022-08-25T06:27:47;24.10;60.60
47368;DHT22;34646;47.964;7.982;2022-08-25T06:33:48;24.10;60.60
47368;DHT22;34646;47.964;7.982;2022-08-25T06:39:49;24.10;60.70
47368;DHT22;34646;47.964;7.982;2022-08-25T06:45:50;24.10;60.60
47368;DHT22;34646;47.964;7.982;2022-08-25T06:51:51;24.10;60.70
47368;DHT22;34646;47.964;7.982;2022-08-25T06:57:52;24.10;60.70
47368;DHT22;34646;47.964;7.982;2022-08-25T07:03:55;24.10;60.70
47368;DHT22;34646;47.964;7.982;2022-08-25T07:09:59;24.10;60.80
47368;DHT22;34646;47.964;7.982;2022-08-25T07:16:00;24.10;60.80
47368;DHT22;34646;47.964;7.982;2022-08-25T07:22:00;24.10;60.80
47368;DHT22;34646;47.964;7.982;2022-08-25T07:28:02;24.10;60.70
47368;DHT22;34646;47.964;7.982;2022-08-25T07:34:03;24.10;60.70
47368;DHT22;34646;47.964;7.982;2022-08-25T07:40:25;24.10;60.80
47368;DHT22;34646;47.964;7.982;2022-08-25T07:46:26;24.00;60.70
47368;DHT22;34646;47.964;7.982;2022-08-25T07:52:27;24.10;60.70
47368;DHT22;34646;47.964;7.982;2022-08-25T07:58:27;24.10;61.30
47368;DHT22;34646;47.964;7.982;2022-08-25T08:04:28;24.10;60.60
47368;DHT22;34646;47.964;7.982;2022-08-25T08:10:29;24.10;60.50
47368;DHT22;34646;47.964;7.982;2022-08-25T08:16:30;24.10;60.50
47368;DHT22;34646;47.964;7.982;2022-08-25T08:22:31;24.10;60.50
47368;DHT22;34646;47.964;7.982;2022-08-25T08:28:32;24.10;60.50
47368;DHT22;34646;47.964;7.982;2022-08-25T08:34:33;24.10;60.50
47368;DHT22;34646;47.964;7.982;2022-08-25T08:40:41;24.10;60.50
47368;DHT22;34646;47.964;7.982;2022-08-25T08:59:49;24.10;60.60
47368;DHT22;34646;47.964;7.982;2022-08-25T09:05:54;24.10;60.70
47368;DHT22;34646;47.964;7.982;2022-08-25T09:12:18;24.10;60.70
47368;DHT22;34646;47.964;7.982;2022-08-25T09:18:33;24.10;60.80
47368;DHT22;34646;47.964;7.982;2022-08-25T09:30:58;24.10;61.00
47368;DHT22;34646;47.964;7.982;2022-08-25T09:37:00;24.10;61.00
47368;DHT22;34646;47.964;7.982;2022-08-25T09:43:03;24.10;61.10
47368;DHT22;34646;47.964;7.982;2022-08-25T09:49:12;24.10;61.10
47368;DHT22;34646;47.964;7.982;2022-08-25T09:55:30;24.10;61.20
47368;DHT22;34646;47.964;7.982;2022-08-25T10:01:31;24.10;61.20
47368;DHT22;34646;47.964;7.982;2022-08-25T10:07:38;24.10;61.20
47368;DHT22;34646;47.964;7.982;2022-08-25T10:13:49;24.10;61.20
47368;DHT22;34646;47.964;7.982;2022-08-25T10:26:15;24.10;61.20
47368;DHT22;34646;47.964;7.982;2022-08-25T10:32:29;24.10;61.10
47368;DHT22;34646;47.964;7.982;2022-08-25T10:51:48;24.10;61.30
47368;DHT22;34646;47.964;7.982;2022-08-25T10:57:59;24.10;61.30
47368;DHT22;34646;47.964;7.982;2022-08-25T11:10:25;24.10;61.30
47368;DHT22;34646;47.964;7.982;2022-08-25T11:16:37;24.10;61.30
47368;DHT22;34646;47.964;7.982;2022-08-25T11:22:44;24.10;61.30
47368;DHT22;34646;47.964;7.982;2022-08-25T11:29:12;24.10;61.40
47368;DHT22;34646;47.964;7.982;2022-08-25T11:35:17;24.10;61.40
47368;DHT22;34646;47.964;7.982;2022-08-25T11:54:27;24.10;61.40
47368;DHT22;34646;47.964;7.982;2022-08-25T12:00:37;24.10;61.40
47368;DHT22;34646;47.964;7.982;2022-08-25T12:25:44;24.10;61.50
47368;DHT22;34646;47.964;7.982;2022-08-25T12:38:01;24.20;61.50
47368;DHT22;34646;47.964;7.982;2022-08-25T12:44:39;24.10;61.40
47368;DHT22;34646;47.964;7.982;2022-08-25T12:50:42;24.10;61.50
47368;DHT22;34646;47.964;7.982;2022-08-25T12:57:00;24.10;61.60
47368;DHT22;34646;47.964;7.982;2022-08-25T13:03:24;24.20;61.50
47368;DHT22;34646;47.964;7.982;2022-08-25T13:09:56;24.20;61.50
47368;DHT22;34646;47.964;7.982;2022-08-25T13:16:08;24.10;61.40
47368;DHT22;34646;47.964;7.982;2022-08-25T13:22:16;24.20;61.50
47368;DHT22;34646;47.964;7.982;2022-08-25T13:28:27;24.20;61.60
47368;DHT22;34646;47.964;7.982;2022-08-25T13:34:39;24.20;61.60
47368;DHT22;34646;47.964;7.982;2022-08-25T13:40:40;24.20;61.70
47368;DHT22;34646;47.964;7.982;2022-08-25T13:46:41;24.20;61.70
47368;DHT22;34646;47.964;7.982;2022-08-25T13:52:47;24.20;61.70
47368;DHT22;34646;47.964;7.982;2022-08-25T13:58:48;24.20;61.70
47368;DHT22;34646;47.964;7.982;2022-08-25T14:04:49;24.30;61.80
47368;DHT22;34646;47.964;7.982;2022-08-25T14:11:08;24.30;61.80
47368;DHT22;34646;47.964;7.982;2022-08-25T14:17:09;24.30;61.80
47368;DHT22;34646;47.964;7.982;2022-08-25T14:23:14;24.40;61.90
47368;DHT22;34646;47.964;7.982;2022-08-25T14:29:16;24.40;61.90
47368;DHT22;34646;47.964;7.982;2022-08-25T14:35:17;24.40;61.90
47368;DHT22;34646;47.964;7.982;2022-08-25T14:41:17;24.40;62.00
47368;DHT22;34646;47.964;7.982;2022-08-25T14:47:18;24.50;61.90
47368;DHT22;34646;47.964;7.982;2022-08-25T14:53:20;24.50;61.90
47368;DHT22;34646;47.964;7.982;2022-08-25T14:59:21;24.50;62.00
47368;DHT22;34646;47.964;7.982;2022-08-25T15:05:25;24.50;62.00
47368;DHT22;34646;47.964;7.982;2022-08-25T15:11:27;24.60;62.00
47368;DHT22;34646;47.964;7.982;2022-08-25T15:17:28;24.60;62.00
47368;DHT22;34646;47.964;7.982;2022-08-25T15:23:29;24.70;62.10
47368;DHT22;34646;47.964;7.982;2022-08-25T15:29:31;24.70;62.20
47368;DHT22;34646;47.964;7.982;2022-08-25T15:35:34;24.70;62.10
47368;DHT22;34646;47.964;7.982;2022-08-25T15:41:35;24.80;62.10
47368;DHT22;34646;47.964;7.982;2022-08-25T15:47:37;24.80;62.10
47368;DHT22;34646;47.964;7.982;2022-08-25T15:53:38;24.80;62.00
47368;DHT22;34646;47.964;7.982;2022-08-25T15:59:38;24.90;61.90
47368;DHT22;34646;47.964;7.982;2022-08-25T16:05:41;25.00;62.00
47368;DHT22;34646;47.964;7.982;2022-08-25T16:11:42;25.00;61.90
47368;DHT22;34646;47.964;7.982;2022-08-25T16:17:43;25.00;61.80
47368;DHT22;34646;47.964;7.982;2022-08-25T16:23:43;25.00;61.70
47368;DHT22;34646;47.964;7.982;2022-08-25T16:29:44;25.10;61.90
47368;DHT22;34646;47.964;7.982;2022-08-25T16:35:45;25.10;61.70
47368;DHT22;34646;47.964;7.982;2022-08-25T16:41:47;25.10;61.60
47368;DHT22;34646;47.964;7.982;2022-08-25T16:47:49;25.20;61.60
47368;DHT22;34646;47.964;7.982;2022-08-25T16:53:49;25.20;61.60
47368;DHT22;34646;47.964;7.982;2022-08-25T17:00:29;25.20;61.50
47368;DHT22;34646;47.964;7.982;2022-08-25T17:06:35;25.20;61.50
47368;DHT22;34646;47.964;7.982;2022-08-25T17:12:36;25.30;61.50
47368;DHT22;34646;47.964;7.982;2022-08-25T17:18:39;25.30;61.50
47368;DHT22;34646;47.964;7.982;2022-08-25T17:24:43;25.30;61.50
47368;DHT22;34646;47.964;7.982;2022-08-25T17:30:44;25.30;61.50
47368;DHT22;34646;47.964;7.982;2022-08-25T17:36:45;25.30;61.60
47368;DHT22;34646;47.964;7.982;2022-08-25T17:42:45;25.30;61.70
47368;DHT22;34646;47.964;7.982;2022-08-25T17:48:46;25.30;61.80
47368;DHT22;34646;47.964;7.982;2022-08-25T17:54:47;25.30;61.90
47368;DHT22;34646;47.964;7.982;2022-08-25T18:00:47;25.20;62.00
47368;DHT22;34646;47.964;7.982;2022-08-25T18:06:48;25.20;62.10
47368;DHT22;34646;47.964;7.982;2022-08-25T18:12:51;25.10;62.00
47368;DHT22;34646;47.964;7.982;2022-08-25T18:18:53;25.10;61.90
47368;DHT22;34646;47.964;7.982;2022-08-25T18:24:54;25.10;61.80
47368;DHT22;34646;47.964;7.982;2022-08-25T18:30:55;25.10;61.70
47368;DHT22;34646;47.964;7.982;2022-08-25T18:36:56;25.10;61.60
47368;DHT22;34646;47.964;7.982;2022-08-25T18:43:17;25.10;61.60
47368;DHT22;34646;47.964;7.982;2022-08-25T18:49:17;25.10;61.50
47368;DHT22;34646;47.964;7.982;2022-08-25T18:55:19;25.10;61.40
47368;DHT22;34646;47.964;7.982;2022-08-25T19:01:20;25.10;61.30
47368;DHT22;34646;47.964;7.982;2022-08-25T19:07:21;25.10;61.40
47368;DHT22;34646;47.964;7.982;2022-08-25T19:13:22;25.10;61.30
47368;DHT22;34646;47.964;7.982;2022-08-25T19:19:23;25.10;61.30
47368;DHT22;34646;47.964;7.982;2022-08-25T19:25:24;25.10;61.30
47368;DHT22;34646;47.964;7.982;2022-08-25T19:31:26;25.10;61.00
47368;DHT22;34646;47.964;7.982;2022-08-25T19:37:26;25.10;61.00
47368;DHT22;34646;47.964;7.982;2022-08-25T19:43:27;25.10;61.00
47368;DHT22;34646;47.964;7.982;2022-08-25T19:49:31;25.00;60.80
47368;DHT22;34646;47.964;7.982;2022-08-25T19:55:35;25.10;60.70
47368;DHT22;34646;47.964;7.982;2022-08-25T20:01:36;25.10;60.70
47368;DHT22;34646;47.964;7.982;2022-08-25T20:07:37;25.00;60.50
47368;DHT22;34646;47.964;7.982;2022-08-25T20:13:38;25.10;60.50
47368;DHT22;34646;47.964;7.982;2022-08-25T20:19:38;25.10;60.40
47368;DHT22;34646;47.964;7.982;2022-08-25T20:25:40;25.10;60.40
47368;DHT22;34646;47.964;7.982;2022-08-25T20:31:41;25.10;60.30
47368;DHT22;34646;47.964;7.982;2022-08-25T20:37:44;25.10;60.30
47368;DHT22;34646;47.964;7.982;2022-08-25T20:43:45;25.10;60.20
47368;DHT22;34646;47.964;7.982;2022-08-25T20:49:46;25.10;60.20
47368;DHT22;34646;47.964;7.982;2022-08-25T20:55:49;25.10;60.20
47368;DHT22;34646;47.964;7.982;2022-08-25T21:01:50;25.10;60.10
47368;DHT22;34646;47.964;7.982;2022-08-25T21:07:51;25.10;60.10
47368;DHT22;34646;47.964;7.982;2022-08-25T21:13:52;25.10;60.70
47368;DHT22;34646;47.964;7.982;2022-08-25T21:19:53;25.10;60.10
47368;DHT22;34646;47.964;7.982;2022-08-25T21:25:54;25.10;60.10
47368;DHT22;34646;47.964;7.982;2022-08-25T21:31:56;25.10;60.00
47368;DHT22;34646;47.964;7.982;2022-08-25T21:37:58;25.10;60.00
47368;DHT22;34646;47.964;7.982;2022-08-25T21:43:59;25.00;60.00
47368;DHT22;34646;47.964;7.982;2022-08-25T21:50:00;25.10;60.00
47368;DHT22;34646;47.964;7.982;2022-08-25T21:56:05;25.10;59.90
47368;DHT22;34646;47.964;7.982;2022-08-25T22:02:09;25.10;60.00
47368;DHT22;34646;47.964;7.982;2022-08-25T22:08:10;25.10;59.90
47368;DHT22;34646;47.964;7.982;2022-08-25T22:14:12;25.10;60.00
47368;DHT22;34646;47.964;7.982;2022-08-25T22:20:13;25.00;59.90
47368;DHT22;34646;47.964;7.982;2022-08-25T22:26:15;25.10;59.90
47368;DHT22;34646;47.964;7.982;2022-08-25T22:32:16;25.10;59.90
47368;DHT22;34646;47.964;7.982;2022-08-25T22:38:17;25.10;59.90
47368;DHT22;34646;47.964;7.982;2022-08-25T22:44:17;25.10;59.90
47368;DHT22;34646;47.964;7.982;2022-08-25T22:50:18;25.10;59.90
47368;DHT22;34646;47.964;7.982;2022-08-25T22:56:31;25.00;59.80
47368;DHT22;34646;47.964;7.982;2022-08-25T23:02:32;25.10;59.80
47368;DHT22;34646;47.964;7.982;2022-08-25T23:08:33;25.10;59.80
47368;DHT22;34646;47.964;7.982;2022-08-25T23:14:37;25.10;59.80
47368;DHT22;34646;47.964;7.982;2022-08-25T23:20:38;25.00;59.70
47368;DHT22;34646;47.964;7.982;2022-08-25T23:26:58;25.10;59.80
47368;DHT22;34646;47.964;7.982;2022-08-25T23:32:59;25.00;59.70
47368;DHT22;34646;47.964;7.982;2022-08-25T23:39:01;25.10;59.80
47368;DHT22;34646;47.964;7.982;2022-08-25T23:45:01;25.00;59.70
47368;DHT22;34646;47.964;7.982;2022-08-25T23:51:03;25.00;59.70
47368;DHT22;34646;47.964;7.982;2022-08-25T23:57:04;25.00;59.70
